Lansing, MI (48917)

5:55 PM EDT on August 24, 2016 (GMT -0400)
APRSWXNET | | Change Station

Elev 885 ft 42.74 °N, 84.66 °W | Updated 25 minutes ago

Overcast
Overcast
80 °F
Feels Like 84 °F
N
1
Wind Variable Wind from West
Gusts 10.0 mph

Today
High -- | Low -- °F
--% Chance of Precip.
Yesterday
High -- | Low -- °F
Precip. -- in
Pressure 29.95 in
Visibility 10.0 miles
Clouds Scattered Clouds 4000 ft
Mostly Cloudy 6000 ft
Overcast 7000 ft
Heat Index 84 °F
Dew Point 72 °F
Humidity 78%
Rainfall in
Snow Depth Not available.
6:55 AM 8:25 PM
Waning Gibbous, 53% visible
METAR KLAN 242153Z 21012KT 10SM SCT040 BKN060 OVC070 27/21 A2996 RMK AO2 SLP140 T02720206
Pressure 29.95 in
Visibility 10.0 miles
Clouds Scattered Clouds 4000 ft
Mostly Cloudy 6000 ft
Overcast 7000 ft
Heat Index 84 °F
Dew Point 72 °F
Humidity 78%
Rainfall in
Snow Depth Not available.
6:55 AM 8:25 PM
Waning Gibbous, 53% visible
METAR KLAN 242153Z 21012KT 10SM SCT040 BKN060 OVC070 27/21 A2996 RMK AO2 SLP140 T02720206

10-Day Weather Forecast

Almanac

Astronomy

Aug. 24, 2016 Rise Set
Actual Time
Civil Twilight
Nautical Twilight
Astronomical Twilight
Moon
Length of Visible Light
Length of Day
Tomorrow will be .
, % of the Moon is Illuminated

Today's Extremes

State Highs State Lows

Community

WunderPhotos

Upload Photos

1,934,722 photos uploaded!

WunderBlog® & News

Nearby

Air Quality

  Air Quality AQ Index Pollutant
Not available.

Snow Depth

Station Depth Elevation

Earthquake Activity

City Distance Mag. Time & Date
Minimum magnitude displayed is 2.5.

Coastal Water Temperatures

Place Temperature

Stations

Nearby Weather Stations

Station Location Temp. Windchill Dew Point Humidity Wind Precip. Elev Updated Type
                   

Watches & Warnings

There are currently no watches in effect.